createdAt,value
2023-01-19T00:00:33.126Z,4.74
2023-01-19T00:03:36.994Z,4.80
2023-01-19T00:06:39.588Z,4.77
2023-01-19T00:09:42.769Z,4.75
2023-01-19T00:12:45.428Z,4.81
2023-01-19T00:15:48.434Z,4.87
2023-01-19T00:18:52.336Z,4.89
2023-01-19T00:21:55.293Z,4.94
2023-01-19T00:24:58.309Z,4.93
2023-01-19T00:28:01.855Z,4.95
2023-01-19T00:31:04.742Z,4.99
2023-01-19T00:34:08.697Z,4.95
2023-01-19T00:37:11.365Z,4.96
2023-01-19T00:40:14.779Z,4.92
2023-01-19T00:43:17.564Z,4.97
2023-01-19T00:46:20.446Z,5.00
2023-01-19T00:49:23.063Z,5.02
2023-01-19T00:52:25.912Z,5.01
2023-01-19T00:55:29.774Z,5.02
2023-01-19T00:58:33.946Z,5.00
2023-01-19T01:01:46.020Z,5.02
2023-01-19T01:04:54.792Z,4.97
2023-01-19T01:07:57.579Z,4.95
2023-01-19T01:11:01.326Z,4.96
2023-01-19T01:14:03.876Z,4.94
2023-01-19T01:17:11.395Z,4.88
2023-01-19T01:20:21.547Z,4.96
2023-01-19T01:23:24.469Z,4.88
2023-01-19T01:26:27.832Z,4.90
2023-01-19T01:29:30.986Z,4.86
2023-01-19T01:32:33.699Z,4.77
2023-01-19T01:35:36.582Z,4.66
2023-01-19T01:38:40.487Z,4.66
2023-01-19T01:41:43.438Z,4.74
2023-01-19T01:44:51.921Z,4.50
2023-01-19T01:48:01.742Z,4.57
2023-01-19T01:51:26.148Z,4.54
2023-01-19T01:54:31.180Z,4.55
2023-01-19T01:57:42.037Z,4.51
2023-01-19T02:01:03.893Z,4.43
2023-01-19T02:04:07.173Z,4.32
2023-01-19T02:07:35.813Z,4.27
2023-01-19T02:10:59.744Z,4.32
2023-01-19T02:14:05.853Z,4.44
2023-01-19T02:17:08.794Z,4.22
2023-01-19T02:20:12.240Z,4.32
2023-01-19T02:23:23.413Z,4.46
2023-01-19T02:26:39.925Z,4.21
2023-01-19T02:29:43.493Z,3.92
2023-01-19T02:32:46.428Z,3.90
2023-01-19T02:35:52.636Z,3.92
2023-01-19T02:38:58.209Z,3.97
2023-01-19T02:42:06.097Z,4.09
2023-01-19T02:45:10.009Z,3.90
2023-01-19T02:48:12.889Z,3.97
2023-01-19T02:51:24.137Z,3.93
2023-01-19T02:54:54.572Z,3.74
2023-01-19T02:57:57.049Z,3.66
2023-01-19T03:01:21.060Z,3.73
2023-01-19T03:04:31.898Z,3.58
2023-01-19T03:07:58.747Z,3.65
2023-01-19T03:11:11.871Z,3.67
2023-01-19T03:14:21.282Z,3.82
2023-01-19T03:17:26.049Z,3.71
2023-01-19T03:20:29.189Z,3.62
2023-01-19T03:23:34.340Z,3.55
2023-01-19T03:26:49.201Z,3.58
2023-01-19T03:29:59.203Z,3.67
2023-01-19T03:33:11.842Z,3.57
2023-01-19T03:36:24.291Z,3.63
2023-01-19T03:39:28.188Z,3.56
2023-01-19T03:42:30.984Z,3.49
2023-01-19T03:45:39.234Z,3.33
2023-01-19T03:48:42.118Z,3.30
2023-01-19T03:51:49.060Z,3.31
2023-01-19T03:54:52.047Z,3.28
2023-01-19T03:57:55.129Z,3.12
2023-01-19T04:00:57.965Z,3.02
2023-01-19T04:04:01.137Z,3.08
2023-01-19T04:07:04.699Z,3.04
2023-01-19T04:10:12.620Z,3.02
2023-01-19T04:13:15.522Z,3.04
2023-01-19T04:16:21.330Z,3.06
2023-01-19T04:19:32.396Z,3.05
2023-01-19T04:22:35.550Z,2.99
2023-01-19T04:25:40.475Z,2.89
2023-01-19T04:28:46.362Z,2.81
2023-01-19T04:32:09.868Z,2.88
2023-01-19T04:35:17.408Z,2.87
2023-01-19T04:38:23.896Z,2.88
2023-01-19T04:41:26.977Z,2.87
2023-01-19T04:44:30.062Z,2.74
2023-01-19T04:47:40.640Z,2.61
2023-01-19T04:50:43.930Z,2.83
2023-01-19T04:53:47.842Z,2.89
2023-01-19T04:56:53.443Z,2.90
2023-01-19T05:00:21.075Z,2.94
2023-01-19T05:03:25.720Z,2.81
2023-01-19T05:06:29.482Z,2.90
2023-01-19T05:09:31.952Z,2.89
2023-01-19T05:12:34.755Z,2.91
2023-01-19T05:15:37.549Z,2.83
2023-01-19T05:18:40.850Z,2.68
2023-01-19T05:21:43.754Z,2.71
2023-01-19T05:24:46.779Z,2.80
2023-01-19T05:27:51.106Z,2.90
2023-01-19T05:30:54.911Z,2.91
2023-01-19T05:33:57.856Z,2.83
2023-01-19T05:37:00.958Z,3.00
2023-01-19T05:40:03.821Z,2.89
2023-01-19T05:43:06.744Z,2.94
2023-01-19T05:46:13.319Z,3.00
2023-01-19T05:49:18.321Z,3.15
2023-01-19T05:52:21.994Z,3.05
2023-01-19T05:55:26.555Z,3.09
2023-01-19T05:58:31.556Z,3.03
2023-01-19T06:04:47.393Z,2.96
2023-01-19T06:07:50.204Z,3.16
2023-01-19T06:10:53.688Z,3.13
2023-01-19T06:14:00.200Z,3.10
2023-01-19T06:17:06.279Z,3.12
2023-01-19T06:20:11.542Z,3.16
2023-01-19T06:23:14.696Z,3.19
2023-01-19T06:26:17.392Z,3.28
2023-01-19T06:29:23.111Z,3.34
2023-01-19T06:32:25.726Z,3.34
2023-01-19T06:35:28.833Z,3.35
2023-01-19T06:38:32.926Z,3.41
2023-01-19T06:41:36.200Z,3.44
2023-01-19T06:44:38.836Z,3.38
2023-01-19T06:47:41.744Z,3.41
2023-01-19T06:50:45.863Z,3.30
2023-01-19T06:53:48.735Z,3.35
2023-01-19T06:56:51.777Z,3.29
2023-01-19T06:59:54.604Z,3.32
2023-01-19T07:02:57.502Z,3.52
2023-01-19T07:06:03.596Z,3.55
2023-01-19T07:09:08.057Z,3.59
2023-01-19T07:12:11.019Z,3.40
2023-01-19T07:15:22.141Z,3.46
2023-01-19T07:18:27.489Z,3.42
2023-01-19T07:21:30.223Z,3.54
2023-01-19T07:24:37.971Z,3.52
2023-01-19T07:27:40.667Z,3.39
2023-01-19T07:30:46.263Z,3.54
2023-01-19T07:33:48.970Z,3.45
2023-01-19T07:36:51.838Z,3.58
2023-01-19T07:39:55.451Z,3.75
2023-01-19T07:42:59.089Z,3.77
2023-01-19T07:46:19.181Z,3.84
2023-01-19T07:49:32.728Z,3.77
2023-01-19T07:52:38.324Z,3.74
2023-01-19T07:55:41.691Z,3.91
2023-01-19T07:58:44.907Z,3.81
2023-01-19T08:01:48.397Z,3.77
2023-01-19T08:04:54.107Z,3.80
2023-01-19T08:08:00.669Z,3.76
2023-01-19T08:11:03.836Z,3.80
2023-01-19T08:14:08.024Z,4.15
2023-01-19T08:17:14.121Z,3.86
2023-01-19T08:20:17.200Z,4.04
2023-01-19T08:23:20.460Z,3.84
2023-01-19T08:26:27.594Z,4.00
2023-01-19T08:29:33.980Z,4.02
2023-01-19T08:32:36.624Z,4.28
2023-01-19T08:35:49.510Z,4.17
2023-01-19T08:38:52.245Z,4.00
2023-01-19T08:41:55.288Z,4.39
2023-01-19T08:44:58.668Z,4.22
2023-01-19T08:48:02.162Z,4.15
2023-01-19T08:51:07.810Z,4.10
2023-01-19T08:54:10.925Z,4.21
2023-01-19T08:57:13.499Z,4.34
2023-01-19T09:00:17.332Z,4.10
2023-01-19T09:03:25.002Z,4.20
2023-01-19T09:06:29.333Z,4.31
2023-01-19T09:09:32.376Z,4.15
2023-01-19T09:12:35.363Z,4.23
2023-01-19T09:15:39.082Z,4.23
2023-01-19T09:18:42.354Z,4.16
2023-01-19T09:21:45.276Z,4.14
2023-01-19T09:24:50.499Z,3.91
2023-01-19T09:27:55.113Z,4.10
2023-01-19T09:30:59.349Z,4.35
2023-01-19T09:34:02.563Z,4.44
2023-01-19T09:37:07.756Z,4.47
2023-01-19T09:40:14.080Z,4.55
2023-01-19T09:43:41.888Z,4.62
2023-01-19T09:46:46.993Z,4.18
2023-01-19T09:49:58.920Z,4.34
2023-01-19T09:53:13.846Z,4.52
2023-01-19T09:56:20.178Z,4.41
2023-01-19T09:59:29.408Z,4.42
2023-01-19T10:02:51.897Z,4.47
2023-01-19T10:06:14.554Z,4.48
2023-01-19T10:09:38.165Z,4.53
2023-01-19T10:12:53.520Z,4.40
2023-01-19T10:16:34.746Z,4.34
2023-01-19T10:19:46.565Z,4.57
2023-01-19T10:22:50.517Z,4.45
2023-01-19T10:25:55.027Z,5.06
2023-01-19T10:29:05.422Z,4.74
2023-01-19T10:32:19.982Z,4.70
2023-01-19T10:35:25.149Z,4.48
2023-01-19T10:38:30.520Z,4.29
2023-01-19T10:41:53.315Z,4.57
2023-01-19T10:45:29.519Z,4.30
2023-01-19T10:48:41.997Z,4.09
2023-01-19T10:51:48.849Z,3.91
2023-01-19T10:54:51.716Z,4.06
2023-01-19T10:57:55.840Z,4.12
2023-01-19T11:01:18.137Z,4.02
2023-01-19T11:04:31.427Z,4.16
2023-01-19T11:07:34.672Z,3.71
2023-01-19T11:10:38.259Z,3.79
2023-01-19T11:13:42.404Z,3.57
2023-01-19T11:16:49.420Z,3.34
2023-01-19T11:20:00.955Z,3.66
2023-01-19T11:23:45.460Z,3.58
2023-01-19T11:26:57.664Z,3.31
2023-01-19T11:30:15.930Z,3.45
2023-01-19T11:33:27.556Z,3.59
2023-01-19T11:36:37.763Z,3.48
2023-01-19T11:39:55.455Z,3.57
2023-01-19T11:42:58.940Z,3.54
2023-01-19T11:46:05.240Z,3.52
2023-01-19T11:49:20.316Z,3.59
2023-01-19T11:52:33.017Z,3.53
2023-01-19T11:55:46.181Z,3.45
2023-01-19T11:58:49.592Z,3.77
2023-01-19T12:01:57.844Z,3.66
2023-01-19T12:05:06.317Z,4.17
2023-01-19T12:08:16.683Z,3.89
2023-01-19T12:11:26.457Z,3.76
2023-01-19T12:14:48.256Z,3.62
2023-01-19T12:17:54.506Z,3.43
2023-01-19T12:20:58.826Z,3.60
2023-01-19T12:24:18.229Z,3.53
2023-01-19T12:27:40.511Z,3.34
2023-01-19T12:30:45.344Z,3.63
2023-01-19T12:33:48.830Z,3.62
2023-01-19T12:36:52.484Z,3.59
2023-01-19T12:39:58.523Z,3.54
2023-01-19T12:43:06.006Z,3.65
2023-01-19T12:46:29.425Z,3.82
2023-01-19T12:49:38.739Z,3.63
2023-01-19T12:52:53.922Z,3.50
2023-01-19T12:56:01.433Z,3.40
2023-01-19T12:59:05.279Z,3.66
2023-01-19T13:02:20.464Z,3.79
2023-01-19T13:05:33.227Z,3.71
2023-01-19T13:09:01.016Z,3.86
2023-01-19T13:12:24.562Z,3.86
2023-01-19T13:15:35.635Z,3.91
2023-01-19T13:18:42.000Z,3.86
2023-01-19T13:21:47.655Z,3.83
2023-01-19T13:25:12.613Z,3.68
2023-01-19T13:28:19.406Z,3.65
2023-01-19T13:31:23.189Z,3.42
2023-01-19T13:34:27.939Z,3.33
2023-01-19T13:37:48.568Z,3.42
2023-01-19T13:40:56.024Z,3.53
2023-01-19T13:44:12.947Z,3.55
2023-01-19T13:47:25.145Z,3.74
2023-01-19T13:54:06.242Z,3.54
2023-01-19T13:57:34.468Z,3.63
2023-01-19T14:00:38.571Z,3.48
2023-01-19T14:03:41.820Z,3.60
2023-01-19T14:06:49.708Z,3.77
2023-01-19T14:10:04.936Z,3.59
2023-01-19T14:13:34.231Z,3.64
2023-01-19T14:16:39.159Z,3.59
2023-01-19T14:20:13.615Z,3.64
2023-01-19T14:23:42.129Z,4.07
2023-01-19T14:26:56.513Z,3.81
2023-01-19T14:30:22.262Z,3.40
2023-01-19T14:33:55.225Z,3.36
2023-01-19T14:36:59.281Z,3.35
2023-01-19T14:40:15.676Z,3.27
2023-01-19T14:43:21.999Z,3.33
2023-01-19T14:46:26.054Z,3.29
2023-01-19T14:49:32.901Z,3.29
2023-01-19T14:52:40.203Z,3.40
2023-01-19T14:55:48.869Z,3.53
2023-01-19T14:58:52.206Z,3.41
2023-01-19T15:01:55.255Z,3.31
2023-01-19T15:04:58.507Z,3.38
2023-01-19T15:08:03.243Z,3.25
2023-01-19T15:11:22.785Z,3.23
2023-01-19T15:14:26.168Z,3.16
2023-01-19T15:17:29.328Z,3.38
2023-01-19T15:20:35.535Z,3.12
2023-01-19T15:23:38.093Z,3.37
2023-01-19T15:26:42.952Z,3.19
2023-01-19T15:29:46.191Z,3.21
2023-01-19T15:32:49.941Z,3.14
2023-01-19T15:35:53.279Z,3.25
2023-01-19T15:38:57.142Z,3.16
2023-01-19T15:42:00.001Z,2.96
2023-01-19T15:45:03.128Z,2.88
2023-01-19T15:48:11.635Z,3.02
2023-01-19T15:51:16.800Z,2.86
2023-01-19T15:54:19.576Z,3.03
2023-01-19T15:57:22.425Z,2.80
2023-01-19T16:00:25.162Z,2.91
2023-01-19T16:03:28.251Z,2.99
2023-01-19T16:06:31.860Z,3.08
2023-01-19T16:09:40.534Z,3.01
2023-01-19T16:12:44.555Z,3.17
2023-01-19T16:15:51.949Z,2.88
2023-01-19T16:18:54.999Z,2.85
2023-01-19T16:21:57.955Z,2.71
2023-01-19T16:25:00.818Z,2.80
2023-01-19T16:28:09.416Z,2.80
2023-01-19T16:31:20.189Z,2.76
2023-01-19T16:34:26.694Z,2.77
2023-01-19T16:37:29.807Z,2.77
2023-01-19T16:40:33.993Z,2.73
2023-01-19T16:43:36.809Z,2.92
2023-01-19T16:46:41.706Z,2.81
2023-01-19T16:49:46.451Z,2.98
2023-01-19T16:52:50.745Z,2.92
2023-01-19T16:55:53.784Z,2.68
2023-01-19T16:58:58.211Z,3.01
2023-01-19T17:02:01.080Z,3.04
2023-01-19T17:05:04.913Z,2.81
2023-01-19T17:08:12.227Z,2.72
2023-01-19T17:11:21.158Z,2.69
2023-01-19T17:14:23.812Z,2.61
2023-01-19T17:17:27.159Z,2.47
2023-01-19T17:20:35.623Z,2.57
2023-01-19T17:23:43.048Z,2.64
2023-01-19T17:26:48.599Z,2.57
2023-01-19T17:29:51.873Z,2.56
2023-01-19T17:32:55.270Z,2.70
2023-01-19T17:36:08.722Z,2.63
2023-01-19T17:39:17.031Z,3.06
2023-01-19T17:42:21.020Z,2.97
2023-01-19T17:45:24.485Z,2.87
2023-01-19T17:48:29.946Z,2.73
2023-01-19T17:51:47.443Z,2.75
2023-01-19T17:55:11.001Z,2.90
2023-01-19T17:58:17.417Z,2.69
2023-01-19T18:01:26.875Z,2.76
2023-01-19T18:04:32.202Z,3.07
2023-01-19T18:07:35.317Z,2.72
2023-01-19T18:10:40.748Z,2.66
2023-01-19T18:13:47.023Z,2.61
2023-01-19T18:16:50.222Z,2.85
2023-01-19T18:19:55.826Z,2.69
2023-01-19T18:23:04.857Z,2.60
2023-01-19T18:26:14.278Z,2.56
2023-01-19T18:29:21.464Z,2.42
2023-01-19T18:32:26.414Z,2.61
2023-01-19T18:35:36.651Z,2.71
2023-01-19T18:38:47.876Z,2.61
2023-01-19T18:41:56.235Z,2.54
2023-01-19T18:45:12.867Z,2.50
2023-01-19T18:48:18.105Z,2.60
2023-01-19T18:51:21.518Z,2.41
2023-01-19T18:54:24.816Z,2.40
2023-01-19T18:57:30.733Z,2.26
2023-01-19T19:00:34.068Z,2.51
2023-01-19T19:03:37.301Z,2.54
2023-01-19T19:06:40.734Z,2.68
2023-01-19T19:09:45.922Z,2.74
2023-01-19T19:12:51.101Z,2.53
2023-01-19T19:16:02.228Z,2.46
2023-01-19T19:19:08.484Z,2.42
2023-01-19T19:22:11.413Z,2.42
2023-01-19T19:25:14.675Z,2.49
2023-01-19T19:28:18.384Z,2.32
2023-01-19T19:31:23.376Z,2.36
2023-01-19T19:34:27.971Z,2.26
2023-01-19T19:37:31.007Z,2.03
2023-01-19T19:40:34.267Z,2.03
2023-01-19T19:43:38.178Z,2.12
2023-01-19T19:46:41.457Z,2.06
2023-01-19T19:49:47.674Z,1.98
2023-01-19T19:52:50.291Z,2.04
2023-01-19T19:56:02.778Z,2.02
2023-01-19T19:59:10.328Z,2.17
2023-01-19T20:02:14.685Z,2.22
2023-01-19T20:05:17.956Z,2.10
2023-01-19T20:08:22.556Z,2.05
2023-01-19T20:11:27.551Z,2.16
2023-01-19T20:14:30.592Z,2.07
2023-01-19T20:17:33.888Z,2.38
2023-01-19T20:20:38.503Z,2.32
2023-01-19T20:23:42.731Z,2.17
2023-01-19T20:26:50.341Z,2.29
2023-01-19T20:29:58.412Z,2.05
2023-01-19T20:33:02.105Z,2.25
2023-01-19T20:36:05.511Z,1.92
2023-01-19T20:39:09.806Z,1.98
2023-01-19T20:42:15.645Z,2.23
2023-01-19T20:45:19.828Z,2.08
2023-01-19T20:48:24.251Z,2.11
2023-01-19T20:51:27.811Z,2.23
2023-01-19T20:54:30.824Z,2.00
2023-01-19T20:57:34.050Z,2.05
2023-01-19T21:00:38.476Z,2.01
2023-01-19T21:03:41.865Z,1.95
2023-01-19T21:06:45.075Z,2.15
2023-01-19T21:09:47.913Z,2.13
2023-01-19T21:12:50.861Z,2.24
2023-01-19T21:15:53.922Z,2.10
2023-01-19T21:18:57.534Z,2.12
2023-01-19T21:22:02.412Z,2.00
2023-01-19T21:25:07.191Z,1.79
2023-01-19T21:28:10.011Z,1.73
2023-01-19T21:31:14.390Z,1.86
2023-01-19T21:34:17.238Z,1.75
2023-01-19T21:37:20.482Z,1.85
2023-01-19T21:40:23.269Z,1.82
2023-01-19T21:43:27.280Z,1.89
2023-01-19T21:46:32.212Z,1.74
2023-01-19T21:49:35.669Z,1.77
2023-01-19T21:52:39.145Z,1.87
2023-01-19T21:55:47.201Z,1.99
2023-01-19T21:58:50.231Z,1.90
2023-01-19T22:01:53.559Z,1.88
2023-01-19T22:04:56.589Z,1.83
2023-01-19T22:08:00.247Z,1.84
2023-01-19T22:11:11.030Z,1.70
2023-01-19T22:14:13.623Z,2.04
2023-01-19T22:17:16.545Z,1.85
2023-01-19T22:20:19.342Z,1.82
2023-01-19T22:23:22.476Z,1.84
2023-01-19T22:26:25.840Z,1.72
2023-01-19T22:29:29.324Z,1.90
2023-01-19T22:32:32.141Z,1.97
2023-01-19T22:35:34.973Z,1.87
2023-01-19T22:38:39.875Z,1.99
2023-01-19T22:41:46.341Z,2.03
2023-01-19T22:44:48.862Z,2.08
2023-01-19T22:47:54.547Z,1.96
2023-01-19T22:50:58.045Z,1.89
2023-01-19T22:54:01.454Z,2.01
2023-01-19T22:57:04.142Z,2.00
2023-01-19T23:00:08.978Z,2.03
2023-01-19T23:03:16.478Z,2.02
2023-01-19T23:06:22.356Z,2.10
2023-01-19T23:09:25.071Z,2.05
2023-01-19T23:12:27.908Z,1.94
2023-01-19T23:15:32.807Z,2.05
2023-01-19T23:18:37.139Z,2.10
2023-01-19T23:21:42.181Z,2.02
2023-01-19T23:24:45.166Z,2.13
2023-01-19T23:27:47.922Z,2.05
2023-01-19T23:30:51.423Z,2.03
2023-01-19T23:34:02.188Z,1.98
2023-01-19T23:37:05.239Z,1.98
2023-01-19T23:40:09.856Z,2.03
2023-01-19T23:43:12.823Z,2.07
2023-01-19T23:46:17.013Z,2.03
2023-01-19T23:49:20.398Z,2.03
2023-01-19T23:52:22.981Z,2.12
2023-01-19T23:55:29.843Z,2.07
2023-01-19T23:58:32.411Z,2.07
